Hovedside
METAR-TAF:

METAR-TAF

Lufthavner :

Kuwait, Kuwait

breddegrad: 29-13N, lengdegrad: 047-59E, høyde over havet: 55 m

Gjeldene værobservasjon

Denne rapporten ble laget for 18 minutter siden, klokken 04:00 UTC
Flau vind
Temperatur 24°C
Luftfuktighet 94%
Trykk 1016 hPa
Sikt: 4000 m
dis

METAR: OKBK 240400Z 00000KT 4000 BR NSC 24/23 Q1016 NOSIG

Tid: 07:18 (04:18 UTC)

Varsel

Denne rapporten ble laget for 5 timer og 33 minutter siden, klokken 22:45 UTC
Varsel gyldig fra 24. klokken 00 UTC til 25. klokken 06 UTC
Vind 3 kt fra skiftende retning
Sikt: 3000 m
dis
Midlertidig
fra 24. klokken 00 UTC til 24. klokken 04 UTC
Sikt: 0800 m
tåke
Blir
fra 24. klokken 04 UTC til 24. klokken 06 UTC
Sikt: 6000 m

TAF: OKBK 232245Z 2400/2506 VRB03KT 3000 BR NSC TEMPO 2400/2404 0800 FG BECMG 2404/2406 6000

Værobservasjoner og værvarsel for over 4000 flyplasser (METAR- og TAF-rapporter).

Tilgjengelige stasjoner er representert av de røde og gule prikkene på kartet.

Hold musepekeren over prikken for å se navnet på stasjonen.

Klikk så for å se værobservasjoner og -varsler.

For å forandre kartet kan du klikke på den grønne knappen med svart kryss for å zoome inn, på den grønne knappen med strek for å zoome ut, eller på de grønne pilene for å se tilstøtende kart.


METAR-TAF: